sensor_id;sensor_type;location;lat;lon;timestamp;P1;durP1;ratioP1;P2;durP2;ratioP2
5890;SDS011;2971;52.420;7.080;2023-02-01T00:02:01;24.80;;;6.10;;
5890;SDS011;2971;52.420;7.080;2023-02-01T00:04:27;22.77;;;6.87;;
5890;SDS011;2971;52.420;7.080;2023-02-01T00:06:53;24.53;;;6.83;;
5890;SDS011;2971;52.420;7.080;2023-02-01T00:09:18;29.57;;;7.27;;
5890;SDS011;2971;52.420;7.080;2023-02-01T00:11:43;26.23;;;6.60;;
5890;SDS011;2971;52.420;7.080;2023-02-01T00:14:09;21.87;;;6.03;;
5890;SDS011;2971;52.420;7.080;2023-02-01T00:16:35;24.07;;;6.07;;
5890;SDS011;2971;52.420;7.080;2023-02-01T00:21:28;22.40;;;6.10;;
5890;SDS011;2971;52.420;7.080;2023-02-01T00:23:54;25.27;;;6.17;;
5890;SDS011;2971;52.420;7.080;2023-02-01T00:26:20;26.70;;;6.57;;
5890;SDS011;2971;52.420;7.080;2023-02-01T00:28:50;20.97;;;6.10;;
5890;SDS011;2971;52.420;7.080;2023-02-01T00:31:16;23.77;;;6.23;;
5890;SDS011;2971;52.420;7.080;2023-02-01T00:33:41;19.80;;;5.97;;
5890;SDS011;2971;52.420;7.080;2023-02-01T00:36:07;22.30;;;6.30;;
5890;SDS011;2971;52.420;7.080;2023-02-01T00:38:38;22.63;;;6.27;;
5890;SDS011;2971;52.420;7.080;2023-02-01T00:41:10;26.13;;;6.27;;
5890;SDS011;2971;52.420;7.080;2023-02-01T00:43:40;23.10;;;6.17;;
5890;SDS011;2971;52.420;7.080;2023-02-01T00:46:06;28.20;;;6.73;;
5890;SDS011;2971;52.420;7.080;2023-02-01T00:48:32;26.67;;;6.73;;
5890;SDS011;2971;52.420;7.080;2023-02-01T00:51:01;18.57;;;5.53;;
5890;SDS011;2971;52.420;7.080;2023-02-01T00:53:27;28.27;;;6.70;;
5890;SDS011;2971;52.420;7.080;2023-02-01T00:55:53;17.27;;;6.10;;
5890;SDS011;2971;52.420;7.080;2023-02-01T00:58:18;30.87;;;5.97;;
5890;SDS011;2971;52.420;7.080;2023-02-01T01:00:44;23.73;;;6.07;;
5890;SDS011;2971;52.420;7.080;2023-02-01T01:03:09;23.03;;;6.03;;
5890;SDS011;2971;52.420;7.080;2023-02-01T01:05:44;24.67;;;5.63;;
5890;SDS011;2971;52.420;7.080;2023-02-01T01:08:10;19.57;;;5.33;;
5890;SDS011;2971;52.420;7.080;2023-02-01T01:10:36;18.93;;;5.47;;
5890;SDS011;2971;52.420;7.080;2023-02-01T01:13:01;24.37;;;5.97;;
5890;SDS011;2971;52.420;7.080;2023-02-01T01:15:27;25.10;;;6.07;;
5890;SDS011;2971;52.420;7.080;2023-02-01T01:17:52;21.07;;;5.83;;
5890;SDS011;2971;52.420;7.080;2023-02-01T01:20:17;21.83;;;4.97;;
5890;SDS011;2971;52.420;7.080;2023-02-01T01:22:46;23.60;;;5.57;;
5890;SDS011;2971;52.420;7.080;2023-02-01T01:25:12;18.33;;;5.57;;
5890;SDS011;2971;52.420;7.080;2023-02-01T01:27:37;20.57;;;5.63;;
5890;SDS011;2971;52.420;7.080;2023-02-01T01:30:03;21.33;;;5.50;;
5890;SDS011;2971;52.420;7.080;2023-02-01T01:32:30;21.23;;;5.77;;
5890;SDS011;2971;52.420;7.080;2023-02-01T01:34:55;22.77;;;6.00;;
5890;SDS011;2971;52.420;7.080;2023-02-01T01:37:21;17.90;;;5.73;;
5890;SDS011;2971;52.420;7.080;2023-02-01T01:39:46;22.67;;;5.77;;
5890;SDS011;2971;52.420;7.080;2023-02-01T01:42:12;21.77;;;6.00;;
5890;SDS011;2971;52.420;7.080;2023-02-01T01:44:57;20.13;;;5.70;;
5890;SDS011;2971;52.420;7.080;2023-02-01T01:47:25;23.00;;;6.03;;
5890;SDS011;2971;52.420;7.080;2023-02-01T01:49:52;29.20;;;6.03;;
5890;SDS011;2971;52.420;7.080;2023-02-01T01:52:17;27.07;;;5.83;;
5890;SDS011;2971;52.420;7.080;2023-02-01T01:54:47;19.97;;;5.63;;
5890;SDS011;2971;52.420;7.080;2023-02-01T01:57:23;24.70;;;7.27;;
5890;SDS011;2971;52.420;7.080;2023-02-01T01:59:54;23.60;;;6.10;;
5890;SDS011;2971;52.420;7.080;2023-02-01T02:02:23;23.10;;;5.73;;
5890;SDS011;2971;52.420;7.080;2023-02-01T02:04:49;24.03;;;6.10;;
5890;SDS011;2971;52.420;7.080;2023-02-01T02:07:16;26.37;;;6.53;;
5890;SDS011;2971;52.420;7.080;2023-02-01T02:09:44;23.00;;;6.30;;
5890;SDS011;2971;52.420;7.080;2023-02-01T02:12:09;22.53;;;5.83;;
5890;SDS011;2971;52.420;7.080;2023-02-01T02:14:35;19.97;;;5.67;;
5890;SDS011;2971;52.420;7.080;2023-02-01T02:44:19;21.43;;;6.20;;
5890;SDS011;2971;52.420;7.080;2023-02-01T02:47:10;23.60;;;6.00;;
5890;SDS011;2971;52.420;7.080;2023-02-01T02:49:51;18.07;;;6.03;;
5890;SDS011;2971;52.420;7.080;2023-02-01T02:52:42;24.70;;;6.10;;
5890;SDS011;2971;52.420;7.080;2023-02-01T02:55:32;19.80;;;5.33;;
5890;SDS011;2971;52.420;7.080;2023-02-01T02:57:58;22.03;;;5.80;;
5890;SDS011;2971;52.420;7.080;2023-02-01T03:00:43;30.60;;;6.90;;
5890;SDS011;2971;52.420;7.080;2023-02-01T03:03:28;25.77;;;5.73;;
5890;SDS011;2971;52.420;7.080;2023-02-01T03:06:13;21.93;;;6.20;;
5890;SDS011;2971;52.420;7.080;2023-02-01T03:08:41;25.50;;;6.47;;
5890;SDS011;2971;52.420;7.080;2023-02-01T03:11:10;22.30;;;5.87;;
5890;SDS011;2971;52.420;7.080;2023-02-01T03:13:46;20.63;;;5.47;;
5890;SDS011;2971;52.420;7.080;2023-02-01T03:16:23;23.37;;;6.07;;
5890;SDS011;2971;52.420;7.080;2023-02-01T03:21:24;24.43;;;5.90;;
5890;SDS011;2971;52.420;7.080;2023-02-01T03:23:52;24.73;;;6.43;;
5890;SDS011;2971;52.420;7.080;2023-02-01T03:26:19;24.83;;;6.23;;
5890;SDS011;2971;52.420;7.080;2023-02-01T03:28:50;23.43;;;6.20;;
5890;SDS011;2971;52.420;7.080;2023-02-01T03:31:20;22.73;;;6.53;;
5890;SDS011;2971;52.420;7.080;2023-02-01T03:33:46;26.80;;;6.20;;
5890;SDS011;2971;52.420;7.080;2023-02-01T03:36:31;23.80;;;6.17;;
5890;SDS011;2971;52.420;7.080;2023-02-01T03:39:08;26.00;;;6.70;;
5890;SDS011;2971;52.420;7.080;2023-02-01T03:41:46;25.27;;;6.57;;
5890;SDS011;2971;52.420;7.080;2023-02-01T03:49:38;28.13;;;6.93;;
5890;SDS011;2971;52.420;7.080;2023-02-01T03:52:09;19.87;;;6.00;;
5890;SDS011;2971;52.420;7.080;2023-02-01T03:54:39;25.73;;;6.87;;
5890;SDS011;2971;52.420;7.080;2023-02-01T03:57:06;20.20;;;6.60;;
5890;SDS011;2971;52.420;7.080;2023-02-01T03:59:38;19.87;;;6.17;;
5890;SDS011;2971;52.420;7.080;2023-02-01T04:02:08;25.13;;;6.77;;
5890;SDS011;2971;52.420;7.080;2023-02-01T04:04:33;21.97;;;6.27;;
5890;SDS011;2971;52.420;7.080;2023-02-01T04:06:59;22.70;;;5.87;;
5890;SDS011;2971;52.420;7.080;2023-02-01T04:09:24;21.37;;;5.80;;
5890;SDS011;2971;52.420;7.080;2023-02-01T04:11:50;23.13;;;5.93;;
5890;SDS011;2971;52.420;7.080;2023-02-01T04:14:15;24.37;;;5.93;;
5890;SDS011;2971;52.420;7.080;2023-02-01T04:16:40;22.87;;;6.10;;
5890;SDS011;2971;52.420;7.080;2023-02-01T04:19:06;25.27;;;5.60;;
5890;SDS011;2971;52.420;7.080;2023-02-01T04:21:31;24.27;;;6.40;;
5890;SDS011;2971;52.420;7.080;2023-02-01T04:23:57;28.07;;;6.20;;
5890;SDS011;2971;52.420;7.080;2023-02-01T04:26:22;21.40;;;5.70;;
5890;SDS011;2971;52.420;7.080;2023-02-01T04:28:48;25.90;;;5.77;;
5890;SDS011;2971;52.420;7.080;2023-02-01T04:31:17;22.53;;;5.83;;
5890;SDS011;2971;52.420;7.080;2023-02-01T04:33:43;23.47;;;6.20;;
5890;SDS011;2971;52.420;7.080;2023-02-01T04:36:09;28.30;;;6.00;;
5890;SDS011;2971;52.420;7.080;2023-02-01T04:38:34;23.67;;;6.07;;
5890;SDS011;2971;52.420;7.080;2023-02-01T04:41:00;23.27;;;5.93;;
5890;SDS011;2971;52.420;7.080;2023-02-01T04:43:25;22.20;;;6.27;;
5890;SDS011;2971;52.420;7.080;2023-02-01T04:45:50;20.97;;;5.93;;
5890;SDS011;2971;52.420;7.080;2023-02-01T04:48:19;24.43;;;5.63;;
5890;SDS011;2971;52.420;7.080;2023-02-01T04:50:46;22.50;;;5.77;;
5890;SDS011;2971;52.420;7.080;2023-02-01T04:53:13;17.40;;;5.90;;
5890;SDS011;2971;52.420;7.080;2023-02-01T04:55:39;21.67;;;5.87;;
5890;SDS011;2971;52.420;7.080;2023-02-01T04:58:05;17.50;;;5.33;;
5890;SDS011;2971;52.420;7.080;2023-02-01T05:00:30;16.63;;;5.10;;
5890;SDS011;2971;52.420;7.080;2023-02-01T05:02:56;20.73;;;5.80;;
5890;SDS011;2971;52.420;7.080;2023-02-01T05:05:21;22.40;;;5.60;;
5890;SDS011;2971;52.420;7.080;2023-02-01T05:07:46;22.80;;;6.03;;
5890;SDS011;2971;52.420;7.080;2023-02-01T05:10:12;19.33;;;6.10;;
5890;SDS011;2971;52.420;7.080;2023-02-01T05:12:37;21.23;;;5.63;;
5890;SDS011;2971;52.420;7.080;2023-02-01T05:15:21;19.20;;;5.83;;
5890;SDS011;2971;52.420;7.080;2023-02-01T05:17:47;23.60;;;6.50;;
5890;SDS011;2971;52.420;7.080;2023-02-01T05:20:12;24.07;;;6.77;;
5890;SDS011;2971;52.420;7.080;2023-02-01T05:22:37;20.53;;;5.87;;
5890;SDS011;2971;52.420;7.080;2023-02-01T05:25:03;22.33;;;6.20;;
5890;SDS011;2971;52.420;7.080;2023-02-01T05:27:29;21.70;;;6.40;;
5890;SDS011;2971;52.420;7.080;2023-02-01T05:29:55;19.27;;;5.90;;
5890;SDS011;2971;52.420;7.080;2023-02-01T05:32:20;23.23;;;6.00;;
5890;SDS011;2971;52.420;7.080;2023-02-01T05:34:46;24.77;;;5.60;;
5890;SDS011;2971;52.420;7.080;2023-02-01T05:37:11;18.50;;;5.53;;
5890;SDS011;2971;52.420;7.080;2023-02-01T05:39:37;23.90;;;6.43;;
5890;SDS011;2971;52.420;7.080;2023-02-01T05:42:02;22.60;;;6.33;;
5890;SDS011;2971;52.420;7.080;2023-02-01T05:44:27;20.43;;;5.47;;
5890;SDS011;2971;52.420;7.080;2023-02-01T05:46:53;19.97;;;5.70;;
5890;SDS011;2971;52.420;7.080;2023-02-01T05:49:18;16.63;;;5.07;;
5890;SDS011;2971;52.420;7.080;2023-02-01T05:51:44;17.63;;;5.97;;
5890;SDS011;2971;52.420;7.080;2023-02-01T05:54:09;19.13;;;6.00;;
5890;SDS011;2971;52.420;7.080;2023-02-01T05:56:35;21.87;;;5.83;;
5890;SDS011;2971;52.420;7.080;2023-02-01T05:59:00;18.20;;;6.00;;
5890;SDS011;2971;52.420;7.080;2023-02-01T06:01:26;16.87;;;5.67;;
5890;SDS011;2971;52.420;7.080;2023-02-01T06:03:51;23.37;;;6.60;;
5890;SDS011;2971;52.420;7.080;2023-02-01T06:06:16;21.30;;;5.77;;
5890;SDS011;2971;52.420;7.080;2023-02-01T06:08:44;21.53;;;6.40;;
5890;SDS011;2971;52.420;7.080;2023-02-01T06:11:10;18.70;;;5.40;;
5890;SDS011;2971;52.420;7.080;2023-02-01T06:13:35;24.37;;;6.70;;
5890;SDS011;2971;52.420;7.080;2023-02-01T06:16:02;22.43;;;6.10;;
5890;SDS011;2971;52.420;7.080;2023-02-01T06:18:28;21.00;;;6.70;;
5890;SDS011;2971;52.420;7.080;2023-02-01T06:20:55;18.30;;;5.60;;
5890;SDS011;2971;52.420;7.080;2023-02-01T06:23:21;20.53;;;6.00;;
5890;SDS011;2971;52.420;7.080;2023-02-01T06:25:49;19.40;;;5.80;;
5890;SDS011;2971;52.420;7.080;2023-02-01T06:28:15;25.80;;;6.00;;
5890;SDS011;2971;52.420;7.080;2023-02-01T06:30:41;22.33;;;6.33;;
5890;SDS011;2971;52.420;7.080;2023-02-01T06:33:10;20.83;;;5.97;;
5890;SDS011;2971;52.420;7.080;2023-02-01T06:35:37;19.03;;;5.30;;
5890;SDS011;2971;52.420;7.080;2023-02-01T06:38:02;24.47;;;6.50;;
5890;SDS011;2971;52.420;7.080;2023-02-01T06:40:27;20.90;;;5.90;;
5890;SDS011;2971;52.420;7.080;2023-02-01T06:42:53;19.47;;;6.43;;
5890;SDS011;2971;52.420;7.080;2023-02-01T06:45:18;19.83;;;6.07;;
5890;SDS011;2971;52.420;7.080;2023-02-01T06:47:43;20.53;;;6.07;;
5890;SDS011;2971;52.420;7.080;2023-02-01T06:50:09;19.70;;;5.60;;
5890;SDS011;2971;52.420;7.080;2023-02-01T06:52:35;18.53;;;5.43;;
5890;SDS011;2971;52.420;7.080;2023-02-01T06:55:00;17.03;;;5.33;;
5890;SDS011;2971;52.420;7.080;2023-02-01T06:57:25;21.20;;;6.47;;
5890;SDS011;2971;52.420;7.080;2023-02-01T06:59:55;27.90;;;6.70;;
5890;SDS011;2971;52.420;7.080;2023-02-01T07:02:20;19.97;;;5.63;;
5890;SDS011;2971;52.420;7.080;2023-02-01T07:04:46;22.93;;;6.53;;
5890;SDS011;2971;52.420;7.080;2023-02-01T07:07:12;19.63;;;5.77;;
5890;SDS011;2971;52.420;7.080;2023-02-01T07:09:37;18.03;;;5.50;;
5890;SDS011;2971;52.420;7.080;2023-02-01T07:12:03;20.07;;;5.70;;
5890;SDS011;2971;52.420;7.080;2023-02-01T07:14:28;18.97;;;6.07;;
5890;SDS011;2971;52.420;7.080;2023-02-01T07:16:54;20.83;;;5.77;;
5890;SDS011;2971;52.420;7.080;2023-02-01T07:19:19;14.97;;;5.53;;
5890;SDS011;2971;52.420;7.080;2023-02-01T07:21:44;17.03;;;5.30;;
5890;SDS011;2971;52.420;7.080;2023-02-01T07:24:10;17.27;;;5.97;;
5890;SDS011;2971;52.420;7.080;2023-02-01T07:26:35;20.43;;;6.13;;
5890;SDS011;2971;52.420;7.080;2023-02-01T07:29:00;19.43;;;5.53;;
5890;SDS011;2971;52.420;7.080;2023-02-01T07:31:26;19.17;;;5.60;;
5890;SDS011;2971;52.420;7.080;2023-02-01T07:33:53;22.03;;;6.27;;
5890;SDS011;2971;52.420;7.080;2023-02-01T07:36:21;16.67;;;5.77;;
5890;SDS011;2971;52.420;7.080;2023-02-01T07:38:46;21.47;;;6.10;;
5890;SDS011;2971;52.420;7.080;2023-02-01T07:41:12;22.73;;;5.83;;
5890;SDS011;2971;52.420;7.080;2023-02-01T07:43:37;18.57;;;5.70;;
5890;SDS011;2971;52.420;7.080;2023-02-01T07:46:03;21.80;;;5.67;;
5890;SDS011;2971;52.420;7.080;2023-02-01T07:48:29;22.33;;;6.27;;
5890;SDS011;2971;52.420;7.080;2023-02-01T07:51:02;17.30;;;5.33;;
5890;SDS011;2971;52.420;7.080;2023-02-01T07:53:29;18.50;;;6.03;;
5890;SDS011;2971;52.420;7.080;2023-02-01T07:55:55;18.00;;;6.00;;
5890;SDS011;2971;52.420;7.080;2023-02-01T07:58:21;17.47;;;5.63;;
5890;SDS011;2971;52.420;7.080;2023-02-01T08:00:47;19.43;;;5.83;;
5890;SDS011;2971;52.420;7.080;2023-02-01T08:03:31;19.40;;;5.33;;
5890;SDS011;2971;52.420;7.080;2023-02-01T08:05:57;17.30;;;5.10;;
5890;SDS011;2971;52.420;7.080;2023-02-01T08:08:22;19.87;;;5.83;;
5890;SDS011;2971;52.420;7.080;2023-02-01T08:10:48;15.47;;;5.50;;
5890;SDS011;2971;52.420;7.080;2023-02-01T08:13:13;18.07;;;5.50;;
5890;SDS011;2971;52.420;7.080;2023-02-01T08:15:39;17.83;;;5.10;;
5890;SDS011;2971;52.420;7.080;2023-02-01T08:18:04;22.90;;;5.97;;
5890;SDS011;2971;52.420;7.080;2023-02-01T08:20:30;20.40;;;5.73;;
5890;SDS011;2971;52.420;7.080;2023-02-01T08:22:55;22.07;;;5.80;;
5890;SDS011;2971;52.420;7.080;2023-02-01T08:25:20;17.00;;;5.80;;
5890;SDS011;2971;52.420;7.080;2023-02-01T08:27:46;15.77;;;5.10;;
5890;SDS011;2971;52.420;7.080;2023-02-01T08:30:11;18.07;;;5.23;;
5890;SDS011;2971;52.420;7.080;2023-02-01T08:32:37;15.67;;;4.90;;
5890;SDS011;2971;52.420;7.080;2023-02-01T08:35:03;16.47;;;5.30;;
5890;SDS011;2971;52.420;7.080;2023-02-01T08:37:29;21.83;;;6.10;;
5890;SDS011;2971;52.420;7.080;2023-02-01T08:39:54;17.77;;;5.57;;
5890;SDS011;2971;52.420;7.080;2023-02-01T08:42:20;19.07;;;5.93;;
5890;SDS011;2971;52.420;7.080;2023-02-01T08:45:04;18.63;;;5.53;;
5890;SDS011;2971;52.420;7.080;2023-02-01T08:47:30;19.37;;;5.93;;
5890;SDS011;2971;52.420;7.080;2023-02-01T08:49:56;19.47;;;5.70;;
5890;SDS011;2971;52.420;7.080;2023-02-01T08:52:21;20.83;;;5.67;;
5890;SDS011;2971;52.420;7.080;2023-02-01T08:54:47;18.10;;;5.90;;
5890;SDS011;2971;52.420;7.080;2023-02-01T08:57:12;16.10;;;5.93;;
5890;SDS011;2971;52.420;7.080;2023-02-01T08:59:38;18.63;;;5.97;;
5890;SDS011;2971;52.420;7.080;2023-02-01T09:02:03;20.00;;;5.80;;
5890;SDS011;2971;52.420;7.080;2023-02-01T09:04:29;17.37;;;5.13;;
5890;SDS011;2971;52.420;7.080;2023-02-01T09:06:54;15.70;;;5.00;;
5890;SDS011;2971;52.420;7.080;2023-02-01T09:09:23;19.30;;;5.23;;
5890;SDS011;2971;52.420;7.080;2023-02-01T09:11:48;17.40;;;5.57;;
5890;SDS011;2971;52.420;7.080;2023-02-01T09:14:15;21.50;;;5.47;;
5890;SDS011;2971;52.420;7.080;2023-02-01T09:16:41;17.73;;;5.10;;
5890;SDS011;2971;52.420;7.080;2023-02-01T09:19:06;17.73;;;5.27;;
5890;SDS011;2971;52.420;7.080;2023-02-01T09:21:31;18.30;;;5.20;;
5890;SDS011;2971;52.420;7.080;2023-02-01T09:23:57;14.90;;;4.90;;
5890;SDS011;2971;52.420;7.080;2023-02-01T09:26:22;19.03;;;5.67;;
5890;SDS011;2971;52.420;7.080;2023-02-01T09:28:48;20.03;;;5.77;;
5890;SDS011;2971;52.420;7.080;2023-02-01T09:31:13;17.50;;;5.30;;
5890;SDS011;2971;52.420;7.080;2023-02-01T09:33:39;16.60;;;5.37;;
5890;SDS011;2971;52.420;7.080;2023-02-01T09:36:05;18.70;;;5.63;;
5890;SDS011;2971;52.420;7.080;2023-02-01T09:38:30;20.30;;;5.30;;
5890;SDS011;2971;52.420;7.080;2023-02-01T09:40:56;15.73;;;5.10;;
5890;SDS011;2971;52.420;7.080;2023-02-01T09:43:37;20.33;;;5.17;;
5890;SDS011;2971;52.420;7.080;2023-02-01T09:48:48;18.33;;;5.07;;
5890;SDS011;2971;52.420;7.080;2023-02-01T09:51:20;16.23;;;5.00;;
5890;SDS011;2971;52.420;7.080;2023-02-01T10:02:04;16.33;;;4.87;;
5890;SDS011;2971;52.420;7.080;2023-02-01T10:04:34;17.70;;;5.17;;
5890;SDS011;2971;52.420;7.080;2023-02-01T10:21:27;20.77;;;5.53;;
5890;SDS011;2971;52.420;7.080;2023-02-01T10:29:43;18.00;;;4.97;;
5890;SDS011;2971;52.420;7.080;2023-02-01T10:32:21;17.83;;;5.07;;
5890;SDS011;2971;52.420;7.080;2023-02-01T10:34:58;16.40;;;5.50;;
5890;SDS011;2971;52.420;7.080;2023-02-01T10:37:29;18.60;;;5.37;;
5890;SDS011;2971;52.420;7.080;2023-02-01T10:39:57;18.13;;;5.30;;
5890;SDS011;2971;52.420;7.080;2023-02-01T10:42:26;15.40;;;4.73;;
5890;SDS011;2971;52.420;7.080;2023-02-01T10:44:53;18.17;;;5.10;;
5890;SDS011;2971;52.420;7.080;2023-02-01T10:47:20;17.37;;;5.37;;
5890;SDS011;2971;52.420;7.080;2023-02-01T10:49:51;12.93;;;4.53;;
5890;SDS011;2971;52.420;7.080;2023-02-01T10:52:22;13.97;;;4.70;;
5890;SDS011;2971;52.420;7.080;2023-02-01T10:57:58;16.73;;;4.97;;
5890;SDS011;2971;52.420;7.080;2023-02-01T11:00:25;16.30;;;5.03;;
5890;SDS011;2971;52.420;7.080;2023-02-01T11:02:52;17.77;;;4.97;;
5890;SDS011;2971;52.420;7.080;2023-02-01T11:05:18;19.87;;;4.87;;
5890;SDS011;2971;52.420;7.080;2023-02-01T11:07:48;16.40;;;4.90;;
5890;SDS011;2971;52.420;7.080;2023-02-01T11:13:07;19.00;;;5.53;;
5890;SDS011;2971;52.420;7.080;2023-02-01T11:15:38;16.93;;;5.20;;
5890;SDS011;2971;52.420;7.080;2023-02-01T11:18:16;20.23;;;5.80;;
5890;SDS011;2971;52.420;7.080;2023-02-01T11:20:42;13.87;;;4.30;;
5890;SDS011;2971;52.420;7.080;2023-02-01T11:23:14;17.47;;;5.37;;
5890;SDS011;2971;52.420;7.080;2023-02-01T11:25:48;18.93;;;5.10;;
5890;SDS011;2971;52.420;7.080;2023-02-01T11:28:25;14.37;;;4.80;;
5890;SDS011;2971;52.420;7.080;2023-02-01T11:30:53;14.30;;;4.53;;
5890;SDS011;2971;52.420;7.080;2023-02-01T11:33:20;18.20;;;5.30;;
5890;SDS011;2971;52.420;7.080;2023-02-01T11:35:52;15.27;;;4.40;;
5890;SDS011;2971;52.420;7.080;2023-02-01T11:38:20;17.27;;;4.93;;
5890;SDS011;2971;52.420;7.080;2023-02-01T11:40:47;17.53;;;4.77;;
5890;SDS011;2971;52.420;7.080;2023-02-01T11:45:59;18.10;;;5.43;;
5890;SDS011;2971;52.420;7.080;2023-02-01T11:48:27;15.40;;;5.00;;
5890;SDS011;2971;52.420;7.080;2023-02-01T12:08:18;23.60;;;6.60;;
5890;SDS011;2971;52.420;7.080;2023-02-01T12:13:38;19.67;;;6.67;;
5890;SDS011;2971;52.420;7.080;2023-02-01T12:32:42;23.37;;;5.93;;
5890;SDS011;2971;52.420;7.080;2023-02-01T12:46:45;19.83;;;5.57;;
5890;SDS011;2971;52.420;7.080;2023-02-01T12:49:17;18.53;;;5.40;;
5890;SDS011;2971;52.420;7.080;2023-02-01T12:51:50;21.00;;;5.83;;
5890;SDS011;2971;52.420;7.080;2023-02-01T12:57:30;18.07;;;6.13;;
5890;SDS011;2971;52.420;7.080;2023-02-01T13:00:43;19.30;;;5.10;;
5890;SDS011;2971;52.420;7.080;2023-02-01T13:02:59;17.07;;;5.30;;
5890;SDS011;2971;52.420;7.080;2023-02-01T13:05:34;23.87;;;6.83;;
5890;SDS011;2971;52.420;7.080;2023-02-01T13:08:06;13.60;;;5.20;;
5890;SDS011;2971;52.420;7.080;2023-02-01T13:13:14;21.50;;;6.17;;
5890;SDS011;2971;52.420;7.080;2023-02-01T13:15:58;25.97;;;6.83;;
5890;SDS011;2971;52.420;7.080;2023-02-01T13:18:41;27.97;;;6.37;;
5890;SDS011;2971;52.420;7.080;2023-02-01T13:21:10;21.80;;;6.20;;
5890;SDS011;2971;52.420;7.080;2023-02-01T13:23:40;22.37;;;6.10;;
5890;SDS011;2971;52.420;7.080;2023-02-01T13:26:06;24.53;;;6.13;;
5890;SDS011;2971;52.420;7.080;2023-02-01T13:36:33;23.43;;;6.57;;
5890;SDS011;2971;52.420;7.080;2023-02-01T13:44:31;16.13;;;5.63;;
5890;SDS011;2971;52.420;7.080;2023-02-01T13:47:03;16.53;;;4.87;;
5890;SDS011;2971;52.420;7.080;2023-02-01T13:49:37;14.77;;;4.77;;
5890;SDS011;2971;52.420;7.080;2023-02-01T13:52:03;15.47;;;5.50;;
5890;SDS011;2971;52.420;7.080;2023-02-01T13:54:33;17.77;;;5.30;;
5890;SDS011;2971;52.420;7.080;2023-02-01T13:57:03;18.03;;;5.30;;
5890;SDS011;2971;52.420;7.080;2023-02-01T14:05:11;16.37;;;4.80;;
5890;SDS011;2971;52.420;7.080;2023-02-01T14:07:41;16.73;;;5.40;;
5890;SDS011;2971;52.420;7.080;2023-02-01T14:13:13;19.93;;;6.30;;
5890;SDS011;2971;52.420;7.080;2023-02-01T14:28:52;24.83;;;6.77;;
5890;SDS011;2971;52.420;7.080;2023-02-01T14:40:00;30.07;;;7.63;;
5890;SDS011;2971;52.420;7.080;2023-02-01T14:47:45;24.37;;;6.40;;
5890;SDS011;2971;52.420;7.080;2023-02-01T14:58:01;24.80;;;6.33;;
5890;SDS011;2971;52.420;7.080;2023-02-01T15:00:30;26.30;;;6.73;;
5890;SDS011;2971;52.420;7.080;2023-02-01T15:03:01;22.47;;;6.57;;
5890;SDS011;2971;52.420;7.080;2023-02-01T15:05:56;25.30;;;6.50;;
5890;SDS011;2971;52.420;7.080;2023-02-01T15:08:25;21.30;;;6.57;;
5890;SDS011;2971;52.420;7.080;2023-02-01T15:10:53;20.43;;;6.70;;
5890;SDS011;2971;52.420;7.080;2023-02-01T15:13:24;23.80;;;6.60;;
5890;SDS011;2971;52.420;7.080;2023-02-01T15:18:35;25.50;;;6.43;;
5890;SDS011;2971;52.420;7.080;2023-02-01T15:21:02;23.37;;;6.70;;
5890;SDS011;2971;52.420;7.080;2023-02-01T15:23:29;22.70;;;6.57;;
5890;SDS011;2971;52.420;7.080;2023-02-01T15:25:54;25.00;;;6.30;;
5890;SDS011;2971;52.420;7.080;2023-02-01T15:28:20;24.03;;;6.53;;
5890;SDS011;2971;52.420;7.080;2023-02-01T15:33:25;24.83;;;6.93;;
5890;SDS011;2971;52.420;7.080;2023-02-01T15:35:55;27.60;;;6.47;;
5890;SDS011;2971;52.420;7.080;2023-02-01T15:41:02;22.17;;;7.70;;
5890;SDS011;2971;52.420;7.080;2023-02-01T15:46:08;19.70;;;5.53;;
5890;SDS011;2971;52.420;7.080;2023-02-01T15:48:47;21.03;;;6.00;;
5890;SDS011;2971;52.420;7.080;2023-02-01T15:51:15;24.03;;;6.80;;
5890;SDS011;2971;52.420;7.080;2023-02-01T15:53:44;23.77;;;6.10;;
5890;SDS011;2971;52.420;7.080;2023-02-01T15:56:10;20.80;;;5.60;;
5890;SDS011;2971;52.420;7.080;2023-02-01T15:58:36;21.63;;;5.53;;
5890;SDS011;2971;52.420;7.080;2023-02-01T16:01:02;20.53;;;5.30;;
5890;SDS011;2971;52.420;7.080;2023-02-01T16:06:07;21.87;;;6.30;;
5890;SDS011;2971;52.420;7.080;2023-02-01T16:08:36;20.90;;;5.93;;
5890;SDS011;2971;52.420;7.080;2023-02-01T16:13:33;22.97;;;6.07;;
5890;SDS011;2971;52.420;7.080;2023-02-01T16:15:58;20.50;;;5.80;;
5890;SDS011;2971;52.420;7.080;2023-02-01T16:18:24;21.23;;;5.73;;
5890;SDS011;2971;52.420;7.080;2023-02-01T16:20:49;18.73;;;5.53;;
5890;SDS011;2971;52.420;7.080;2023-02-01T16:23:15;20.17;;;5.77;;
5890;SDS011;2971;52.420;7.080;2023-02-01T16:25:40;21.60;;;5.50;;
5890;SDS011;2971;52.420;7.080;2023-02-01T16:28:06;18.20;;;5.27;;
5890;SDS011;2971;52.420;7.080;2023-02-01T16:30:32;17.30;;;5.17;;
5890;SDS011;2971;52.420;7.080;2023-02-01T16:32:58;22.57;;;5.40;;
5890;SDS011;2971;52.420;7.080;2023-02-01T16:35:25;14.63;;;5.10;;
5890;SDS011;2971;52.420;7.080;2023-02-01T16:37:52;18.37;;;5.40;;
5890;SDS011;2971;52.420;7.080;2023-02-01T16:40:18;18.53;;;5.17;;
5890;SDS011;2971;52.420;7.080;2023-02-01T16:42:46;16.90;;;5.10;;
5890;SDS011;2971;52.420;7.080;2023-02-01T16:45:13;21.07;;;5.93;;
5890;SDS011;2971;52.420;7.080;2023-02-01T16:47:39;20.13;;;5.30;;
5890;SDS011;2971;52.420;7.080;2023-02-01T16:50:13;19.33;;;5.60;;
5890;SDS011;2971;52.420;7.080;2023-02-01T16:52:41;20.47;;;5.80;;
5890;SDS011;2971;52.420;7.080;2023-02-01T16:55:11;14.53;;;4.40;;
5890;SDS011;2971;52.420;7.080;2023-02-01T16:57:41;17.23;;;5.47;;
5890;SDS011;2971;52.420;7.080;2023-02-01T17:00:07;16.97;;;5.23;;
5890;SDS011;2971;52.420;7.080;2023-02-01T17:02:36;20.83;;;5.23;;
5890;SDS011;2971;52.420;7.080;2023-02-01T17:05:02;17.57;;;5.30;;
5890;SDS011;2971;52.420;7.080;2023-02-01T17:07:27;16.97;;;4.93;;
5890;SDS011;2971;52.420;7.080;2023-02-01T17:09:53;17.33;;;4.97;;
5890;SDS011;2971;52.420;7.080;2023-02-01T17:12:25;11.67;;;4.80;;
5890;SDS011;2971;52.420;7.080;2023-02-01T17:14:52;16.77;;;4.83;;
5890;SDS011;2971;52.420;7.080;2023-02-01T17:17:18;18.50;;;5.17;;
5890;SDS011;2971;52.420;7.080;2023-02-01T17:19:46;22.33;;;5.03;;
5890;SDS011;2971;52.420;7.080;2023-02-01T17:22:16;18.87;;;5.57;;
5890;SDS011;2971;52.420;7.080;2023-02-01T17:24:42;19.93;;;5.37;;
5890;SDS011;2971;52.420;7.080;2023-02-01T17:27:08;17.13;;;5.17;;
5890;SDS011;2971;52.420;7.080;2023-02-01T17:29:33;17.27;;;5.27;;
5890;SDS011;2971;52.420;7.080;2023-02-01T17:31:59;20.33;;;6.00;;
5890;SDS011;2971;52.420;7.080;2023-02-01T17:34:25;17.73;;;5.60;;
5890;SDS011;2971;52.420;7.080;2023-02-01T17:36:50;18.83;;;6.03;;
5890;SDS011;2971;52.420;7.080;2023-02-01T17:39:16;16.90;;;5.80;;
5890;SDS011;2971;52.420;7.080;2023-02-01T17:42:00;18.10;;;5.97;;
5890;SDS011;2971;52.420;7.080;2023-02-01T17:44:26;20.83;;;6.00;;
5890;SDS011;2971;52.420;7.080;2023-02-01T17:46:52;21.57;;;6.20;;
5890;SDS011;2971;52.420;7.080;2023-02-01T17:49:17;21.87;;;6.50;;
5890;SDS011;2971;52.420;7.080;2023-02-01T17:51:43;21.40;;;6.87;;
5890;SDS011;2971;52.420;7.080;2023-02-01T17:54:11;23.13;;;6.47;;
5890;SDS011;2971;52.420;7.080;2023-02-01T17:56:37;19.83;;;6.33;;
5890;SDS011;2971;52.420;7.080;2023-02-01T17:59:03;25.00;;;6.80;;
5890;SDS011;2971;52.420;7.080;2023-02-01T18:01:28;25.20;;;6.93;;
5890;SDS011;2971;52.420;7.080;2023-02-01T18:03:54;21.10;;;6.30;;
5890;SDS011;2971;52.420;7.080;2023-02-01T18:06:20;24.07;;;7.33;;
5890;SDS011;2971;52.420;7.080;2023-02-01T18:08:47;28.40;;;7.87;;
5890;SDS011;2971;52.420;7.080;2023-02-01T18:11:17;27.40;;;6.77;;
5890;SDS011;2971;52.420;7.080;2023-02-01T18:13:43;23.87;;;7.30;;
5890;SDS011;2971;52.420;7.080;2023-02-01T18:16:15;23.53;;;7.77;;
5890;SDS011;2971;52.420;7.080;2023-02-01T18:18:46;21.93;;;7.30;;
5890;SDS011;2971;52.420;7.080;2023-02-01T18:21:12;23.87;;;6.77;;
5890;SDS011;2971;52.420;7.080;2023-02-01T18:23:38;27.00;;;7.10;;
5890;SDS011;2971;52.420;7.080;2023-02-01T18:26:03;25.83;;;7.10;;
5890;SDS011;2971;52.420;7.080;2023-02-01T18:28:29;22.87;;;7.27;;
5890;SDS011;2971;52.420;7.080;2023-02-01T18:30:55;26.60;;;6.20;;